PWSweather.com
Personal Weather Stations
Station Observations
KMIEASTT1
Tawas Bay, East Tawas, MI 48730

Tawas BayEast Tawas, MI 48730

Lat: 44.28, Lon: -83.48

Elevation: 600

Station Type: Davis VantagePro

http://www.tawasbayweather.com

High Low Average
Temperature 34.0°F1.1°F 18.8°F-7.3°F 28.3°F-2.1°F
Dew Point 29.8°F-1.2°F 17.0°F-8.3°F 25.7°F-3.5°F
Winds 19.0 mph W30.6 mph W Calm Calm 5.8 mph 9.3 mph
Wind Gusts 22.0 mph35.4 mph -- 7.8 mph12.6 mph
Humidity 94% 82% 90%
Pressure 30.36 in1028.10 in 30.24 in1024.00 in -
Precipitation 0.00 in0.00 in - -
Hour Temp Dew Point Humidity Winds Wind Gusts Pressure Precip Precip Rate Daily Precip Total
12:00 AM 22.8°F-5.1°C 21.1°F-6.1°C 93% Calm Calm 3.0 mph4.8 kmh 30.33 in1027.1 mb 0.00 in0.0 mm 0.00 in/hr0.0 mm/hr 0.00 in0.0 mm
12:15 AM 22.1°F-5.5°C 19.9°F-6.7°C 91% 1.0 mph W1.6 kmh W 2.0 mph3.2 kmh 30.33 in1027.1 mb 0.00 in0.0 mm 0.00 in/hr0.0 mm/hr 0.00 in0.0 mm
12:30 AM 21.9°F-5.6°C 19.9°F-6.7°C 92% Calm Calm 1.0 mph1.6 kmh 30.33 in1027.1 mb 0.00 in0.0 mm 0.00 in/hr0.0 mm/hr 0.00 in0.0 mm
12:45 AM 21.5°F-5.8°C 19.5°F-6.9°C 92% Calm Calm -- 30.34 in1027.4 mb 0.00 in0.0 mm 0.00 in/hr0.0 mm/hr 0.00 in0.0 mm
01:00 AM 21.1°F-6.1°C 19.1°F-7.2°C 92% Calm Calm -- 30.33 in1027.1 mb 0.00 in0.0 mm 0.00 in/hr0.0 mm/hr 0.00 in0.0 mm
01:15 AM 20.9°F-6.2°C 19.2°F-7.1°C 93% Calm Calm -- 30.33 in1027.1 mb 0.00 in0.0 mm 0.00 in/hr0.0 mm/hr 0.00 in0.0 mm
01:30 AM 21.1°F-6.1°C 19.4°F-7.0°C 93% Calm Calm -- 30.33 in1027.1 mb 0.00 in0.0 mm 0.00 in/hr0.0 mm/hr 0.00 in0.0 mm
01:45 AM 20.8°F-6.2°C 19.1°F-7.2°C 93% Calm Calm -- 30.34 in1027.4 mb 0.00 in0.0 mm 0.00 in/hr0.0 mm/hr 0.00 in0.0 mm
02:00 AM 21.2°F-6.0°C 19.5°F-6.9°C 93% Calm Calm -- 30.34 in1027.4 mb 0.00 in0.0 mm 0.00 in/hr0.0 mm/hr 0.00 in0.0 mm
02:15 AM 20.8°F-6.2°C 18.9°F-7.3°C 92% Calm Calm -- 30.34 in1027.4 mb 0.00 in0.0 mm 0.00 in/hr0.0 mm/hr 0.00 in0.0 mm
02:30 AM 20.0°F-6.7°C 18.1°F-7.7°C 92% Calm Calm -- 30.35 in1027.8 mb 0.00 in0.0 mm 0.00 in/hr0.0 mm/hr 0.00 in0.0 mm
02:45 AM 19.8°F-6.8°C 18.1°F-7.7°C 93% Calm Calm -- 30.35 in1027.8 mb 0.00 in0.0 mm 0.00 in/hr0.0 mm/hr 0.00 in0.0 mm
03:00 AM 20.4°F-6.4°C 18.7°F-7.4°C 93% Calm Calm -- 30.36 in1028.1 mb 0.00 in0.0 mm 0.00 in/hr0.0 mm/hr 0.00 in0.0 mm
03:15 AM 19.5°F-6.9°C 17.6°F-8.0°C 92% 1.0 mph W1.6 kmh W 2.0 mph3.2 kmh 30.35 in1027.8 mb 0.00 in0.0 mm 0.00 in/hr0.0 mm/hr 0.00 in0.0 mm
03:30 AM 18.9°F-7.3°C 17.0°F-8.3°C 92% Calm Calm -- 30.35 in1027.8 mb 0.00 in0.0 mm 0.00 in/hr0.0 mm/hr 0.00 in0.0 mm
03:45 AM 18.8°F-7.3°C 17.1°F-8.3°C 93% Calm Calm 2.0 mph3.2 kmh 30.34 in1027.4 mb 0.00 in0.0 mm 0.00 in/hr0.0 mm/hr 0.00 in0.0 mm
04:00 AM 19.2°F-7.1°C 17.3°F-8.2°C 92% 1.0 mph W1.6 kmh W 3.0 mph4.8 kmh 30.34 in1027.4 mb 0.00 in0.0 mm 0.00 in/hr0.0 mm/hr 0.00 in0.0 mm
04:15 AM 19.8°F-6.8°C 18.1°F-7.7°C 93% Calm Calm 1.0 mph1.6 kmh 30.34 in1027.4 mb 0.00 in0.0 mm 0.00 in/hr0.0 mm/hr 0.00 in0.0 mm
04:30 AM 20.6°F-6.3°C 18.9°F-7.3°C 93% Calm Calm 1.0 mph1.6 kmh 30.34 in1027.4 mb 0.00 in0.0 mm 0.00 in/hr0.0 mm/hr 0.00 in0.0 mm
04:45 AM 21.0°F-6.1°C 19.3°F-7.1°C 93% 2.0 mph W3.2 kmh W 2.0 mph3.2 kmh 30.34 in1027.4 mb 0.00 in0.0 mm 0.00 in/hr0.0 mm/hr 0.00 in0.0 mm
05:00 AM 21.6°F-5.8°C 19.9°F-6.7°C 93% 1.0 mph W1.6 kmh W 2.0 mph3.2 kmh 30.34 in1027.4 mb 0.00 in0.0 mm 0.00 in/hr0.0 mm/hr 0.00 in0.0 mm
05:15 AM 22.1°F-5.5°C 20.4°F-6.4°C 93% Calm Calm 2.0 mph3.2 kmh 30.34 in1027.4 mb 0.00 in0.0 mm 0.00 in/hr0.0 mm/hr 0.00 in0.0 mm
05:30 AM 22.5°F-5.3°C 20.8°F-6.2°C 93% Calm Calm 1.0 mph1.6 kmh 30.35 in1027.8 mb 0.00 in0.0 mm 0.00 in/hr0.0 mm/hr 0.00 in0.0 mm
05:45 AM 23.0°F-5.0°C 21.3°F-5.9°C 93% 2.0 mph W3.2 kmh W 2.0 mph3.2 kmh 30.35 in1027.8 mb 0.00 in0.0 mm 0.00 in/hr0.0 mm/hr 0.00 in0.0 mm
06:00 AM 23.4°F-4.8°C 21.7°F-5.7°C 93% 1.0 mph W1.6 kmh W 2.0 mph3.2 kmh 30.35 in1027.8 mb 0.00 in0.0 mm 0.00 in/hr0.0 mm/hr 0.00 in0.0 mm
06:15 AM 23.6°F-4.7°C 21.9°F-5.6°C 93% Calm Calm 3.0 mph4.8 kmh 30.35 in1027.8 mb 0.00 in0.0 mm 0.00 in/hr0.0 mm/hr 0.00 in0.0 mm
06:30 AM 23.8°F-4.6°C 22.1°F-5.5°C 93% Calm Calm 2.0 mph3.2 kmh 30.36 in1028.1 mb 0.00 in0.0 mm 0.00 in/hr0.0 mm/hr 0.00 in0.0 mm
06:45 AM 24.2°F-4.3°C 22.5°F-5.3°C 93% Calm Calm 2.0 mph3.2 kmh 30.35 in1027.8 mb 0.00 in0.0 mm 0.00 in/hr0.0 mm/hr 0.00 in0.0 mm
07:00 AM 24.7°F-4.1°C 23.0°F-5.0°C 93% Calm Calm -- 30.34 in1027.4 mb 0.00 in0.0 mm 0.00 in/hr0.0 mm/hr 0.00 in0.0 mm
07:15 AM 25.1°F-3.8°C 23.4°F-4.8°C 93% Calm Calm -- 30.33 in1027.1 mb 0.00 in0.0 mm 0.00 in/hr0.0 mm/hr 0.00 in0.0 mm
07:30 AM 25.6°F-3.6°C 23.9°F-4.5°C 93% Calm Calm 1.0 mph1.6 kmh 30.33 in1027.1 mb 0.00 in0.0 mm 0.00 in/hr0.0 mm/hr 0.00 in0.0 mm
07:45 AM 25.5°F-3.6°C 23.5°F-4.7°C 92% 1.0 mph W1.6 kmh W 2.0 mph3.2 kmh 30.33 in1027.1 mb 0.00 in0.0 mm 0.00 in/hr0.0 mm/hr 0.00 in0.0 mm
08:00 AM 26.3°F-3.2°C 24.8°F-4.0°C 94% 1.0 mph SW1.6 kmh SW 3.0 mph4.8 kmh 30.33 in1027.1 mb 0.00 in0.0 mm 0.00 in/hr0.0 mm/hr 0.00 in0.0 mm
08:15 AM 26.9°F-2.8°C 25.2°F-3.8°C 93% 1.0 mph SSE1.6 kmh SSE 2.0 mph3.2 kmh 30.33 in1027.1 mb 0.00 in0.0 mm 0.00 in/hr0.0 mm/hr 0.00 in0.0 mm
08:30 AM 27.9°F-2.3°C 25.9°F-3.4°C 92% 2.0 mph W3.2 kmh W 3.0 mph4.8 kmh 30.33 in1027.1 mb 0.00 in0.0 mm 0.00 in/hr0.0 mm/hr 0.00 in0.0 mm
08:45 AM 28.0°F-2.2°C 26.0°F-3.3°C 92% Calm Calm 1.0 mph1.6 kmh 30.33 in1027.1 mb 0.00 in0.0 mm 0.00 in/hr0.0 mm/hr 0.00 in0.0 mm
09:00 AM 28.8°F-1.8°C 27.0°F-2.8°C 93% 2.0 mph SW3.2 kmh SW 3.0 mph4.8 kmh 30.33 in1027.1 mb 0.00 in0.0 mm 0.00 in/hr0.0 mm/hr 0.00 in0.0 mm
09:15 AM 30.1°F-1.1°C 27.5°F-2.5°C 90% 6.0 mph S9.7 kmh S 9.0 mph14.5 kmh 30.33 in1027.1 mb 0.00 in0.0 mm 0.00 in/hr0.0 mm/hr 0.00 in0.0 mm
09:30 AM 30.2°F-1.0°C 27.6°F-2.4°C 90% 7.0 mph S11.3 kmh S 9.0 mph14.5 kmh 30.33 in1027.1 mb 0.00 in0.0 mm 0.00 in/hr0.0 mm/hr 0.00 in0.0 mm
09:45 AM 30.3°F-0.9°C 27.5°F-2.5°C 89% 8.0 mph SSE12.9 kmh SSE 10.0 mph16.1 kmh 30.33 in1027.1 mb 0.00 in0.0 mm 0.00 in/hr0.0 mm/hr 0.00 in0.0 mm
10:00 AM 30.5°F-0.8°C 27.7°F-2.4°C 89% 6.0 mph S9.7 kmh S 9.0 mph14.5 kmh 30.33 in1027.1 mb 0.00 in0.0 mm 0.00 in/hr0.0 mm/hr 0.00 in0.0 mm
10:15 AM 30.5°F-0.8°C 27.1°F-2.7°C 87% 8.0 mph S12.9 kmh S 10.0 mph16.1 kmh 30.33 in1027.1 mb 0.00 in0.0 mm 0.00 in/hr0.0 mm/hr 0.00 in0.0 mm
10:30 AM 30.5°F-0.8°C 27.4°F-2.6°C 88% 9.0 mph S14.5 kmh S 10.0 mph16.1 kmh 30.33 in1027.1 mb 0.00 in0.0 mm 0.00 in/hr0.0 mm/hr 0.00 in0.0 mm
10:45 AM 30.7°F-0.7°C 27.6°F-2.4°C 88% 8.0 mph SSE12.9 kmh SSE 10.0 mph16.1 kmh 30.33 in1027.1 mb 0.00 in0.0 mm 0.00 in/hr0.0 mm/hr 0.00 in0.0 mm
11:00 AM 30.7°F-0.7°C 27.6°F-2.4°C 88% 9.0 mph S14.5 kmh S 10.0 mph16.1 kmh 30.33 in1027.1 mb 0.00 in0.0 mm 0.00 in/hr0.0 mm/hr 0.00 in0.0 mm
11:15 AM 30.7°F-0.7°C 27.6°F-2.4°C 88% 7.0 mph SSE11.3 kmh SSE 10.0 mph16.1 kmh 30.33 in1027.1 mb 0.00 in0.0 mm 0.00 in/hr0.0 mm/hr 0.00 in0.0 mm
11:30 AM 30.8°F-0.7°C 27.7°F-2.4°C 88% 7.0 mph SSE11.3 kmh SSE 11.0 mph17.7 kmh 30.32 in1026.8 mb 0.00 in0.0 mm 0.00 in/hr0.0 mm/hr 0.00 in0.0 mm
11:45 AM 30.8°F-0.7°C 27.7°F-2.4°C 88% 8.0 mph S12.9 kmh S 10.0 mph16.1 kmh 30.32 in1026.8 mb 0.00 in0.0 mm 0.00 in/hr0.0 mm/hr 0.00 in0.0 mm
12:00 PM 30.8°F-0.7°C 28.0°F-2.2°C 89% 8.0 mph SSE12.9 kmh SSE 10.0 mph16.1 kmh 30.31 in1026.4 mb 0.00 in0.0 mm 0.00 in/hr0.0 mm/hr 0.00 in0.0 mm
12:15 PM 30.8°F-0.7°C 28.0°F-2.2°C 89% 7.0 mph S11.3 kmh S 9.0 mph14.5 kmh 30.30 in1026.1 mb 0.00 in0.0 mm 0.00 in/hr0.0 mm/hr 0.00 in0.0 mm
12:30 PM 30.9°F-0.6°C 28.3°F-2.1°C 90% 7.0 mph S11.3 kmh S 10.0 mph16.1 kmh 30.29 in1025.7 mb 0.00 in0.0 mm 0.00 in/hr0.0 mm/hr 0.00 in0.0 mm
12:45 PM 31.0°F-0.6°C 28.4°F-2.0°C 90% 9.0 mph S14.5 kmh S 10.0 mph16.1 kmh 30.29 in1025.7 mb 0.00 in0.0 mm 0.00 in/hr0.0 mm/hr 0.00 in0.0 mm
01:00 PM 30.9°F-0.6°C 28.3°F-2.1°C 90% 7.0 mph S11.3 kmh S 10.0 mph16.1 kmh 30.29 in1025.7 mb 0.00 in0.0 mm 0.00 in/hr0.0 mm/hr 0.00 in0.0 mm
01:15 PM 30.9°F-0.6°C 28.3°F-2.1°C 90% 9.0 mph S14.5 kmh S 11.0 mph17.7 kmh 30.29 in1025.7 mb 0.00 in0.0 mm 0.00 in/hr0.0 mm/hr 0.00 in0.0 mm
01:30 PM 31.0°F-0.6°C 28.4°F-2.0°C 90% 7.0 mph S11.3 kmh S 10.0 mph16.1 kmh 30.28 in1025.4 mb 0.00 in0.0 mm 0.00 in/hr0.0 mm/hr 0.00 in0.0 mm
01:45 PM 31.2°F-0.4°C 28.6°F-1.9°C 90% 7.0 mph SSE11.3 kmh SSE 10.0 mph16.1 kmh 30.28 in1025.4 mb 0.00 in0.0 mm 0.00 in/hr0.0 mm/hr 0.00 in0.0 mm
02:00 PM 31.3°F-0.4°C 29.0°F-1.7°C 91% 6.0 mph S9.7 kmh S 10.0 mph16.1 kmh 30.27 in1025.1 mb 0.00 in0.0 mm 0.00 in/hr0.0 mm/hr 0.00 in0.0 mm
02:15 PM 31.4°F-0.3°C 29.1°F-1.6°C 91% 8.0 mph S12.9 kmh S 9.0 mph14.5 kmh 30.27 in1025.1 mb 0.00 in0.0 mm 0.00 in/hr0.0 mm/hr 0.00 in0.0 mm
02:30 PM 31.5°F-0.3°C 29.2°F-1.6°C 91% 9.0 mph S14.5 kmh S 11.0 mph17.7 kmh 30.27 in1025.1 mb 0.00 in0.0 mm 0.00 in/hr0.0 mm/hr 0.00 in0.0 mm
02:45 PM 31.6°F-0.2°C 29.0°F-1.7°C 90% 6.0 mph S9.7 kmh S 10.0 mph16.1 kmh 30.27 in1025.1 mb 0.00 in0.0 mm 0.00 in/hr0.0 mm/hr 0.00 in0.0 mm
03:00 PM 31.8°F-0.1°C 29.2°F-1.6°C 90% 8.0 mph S12.9 kmh S 10.0 mph16.1 kmh 30.27 in1025.1 mb 0.00 in0.0 mm 0.00 in/hr0.0 mm/hr 0.00 in0.0 mm
03:15 PM 31.8°F-0.1°C 29.2°F-1.6°C 90% 6.0 mph SSE9.7 kmh SSE 10.0 mph16.1 kmh 30.27 in1025.1 mb 0.00 in0.0 mm 0.00 in/hr0.0 mm/hr 0.00 in0.0 mm
03:30 PM 32.0°F0.0°C 29.4°F-1.4°C 90% 8.0 mph S12.9 kmh S 9.0 mph14.5 kmh 30.27 in1025.1 mb 0.00 in0.0 mm 0.00 in/hr0.0 mm/hr 0.00 in0.0 mm
03:45 PM 32.1°F0.1°C 29.2°F-1.6°C 89% 7.0 mph SSE11.3 kmh SSE 10.0 mph16.1 kmh 30.26 in1024.7 mb 0.00 in0.0 mm 0.00 in/hr0.0 mm/hr 0.00 in0.0 mm
04:00 PM 32.2°F0.1°C 29.3°F-1.5°C 89% 7.0 mph SSE11.3 kmh SSE 12.0 mph19.3 kmh 30.27 in1025.1 mb 0.00 in0.0 mm 0.00 in/hr0.0 mm/hr 0.00 in0.0 mm
04:15 PM 32.3°F0.2°C 29.2°F-1.6°C 88% 9.0 mph SSE14.5 kmh SSE 13.0 mph20.9 kmh 30.26 in1024.7 mb 0.00 in0.0 mm 0.00 in/hr0.0 mm/hr 0.00 in0.0 mm
04:30 PM 32.3°F0.2°C 29.2°F-1.6°C 88% 10.0 mph SE16.1 kmh SE 11.0 mph17.7 kmh 30.27 in1025.1 mb 0.00 in0.0 mm 0.00 in/hr0.0 mm/hr 0.00 in0.0 mm
04:45 PM 32.4°F0.2°C 29.3°F-1.5°C 88% 9.0 mph SSE14.5 kmh SSE 13.0 mph20.9 kmh 30.27 in1025.1 mb 0.00 in0.0 mm 0.00 in/hr0.0 mm/hr 0.00 in0.0 mm
05:00 PM 32.5°F0.3°C 29.1°F-1.6°C 87% 8.0 mph SSE12.9 kmh SSE 12.0 mph19.3 kmh 30.27 in1025.1 mb 0.00 in0.0 mm 0.00 in/hr0.0 mm/hr 0.00 in0.0 mm
05:15 PM 32.5°F0.3°C 28.8°F-1.8°C 86% 8.0 mph S12.9 kmh S 12.0 mph19.3 kmh 30.27 in1025.1 mb 0.00 in0.0 mm 0.00 in/hr0.0 mm/hr 0.00 in0.0 mm
05:30 PM 32.6°F0.3°C 28.9°F-1.7°C 86% 9.0 mph SE14.5 kmh SE 12.0 mph19.3 kmh 30.27 in1025.1 mb 0.00 in0.0 mm 0.00 in/hr0.0 mm/hr 0.00 in0.0 mm
05:45 PM 32.6°F0.3°C 28.9°F-1.7°C 86% 9.0 mph SSE14.5 kmh SSE 14.0 mph22.5 kmh 30.27 in1025.1 mb 0.00 in0.0 mm 0.00 in/hr0.0 mm/hr 0.00 in0.0 mm
06:00 PM 32.6°F0.3°C 28.9°F-1.7°C 86% 9.0 mph SE14.5 kmh SE 13.0 mph20.9 kmh 30.27 in1025.1 mb 0.00 in0.0 mm 0.00 in/hr0.0 mm/hr 0.00 in0.0 mm
06:15 PM 32.6°F0.3°C 28.6°F-1.9°C 85% 10.0 mph SE16.1 kmh SE 15.0 mph24.1 kmh 30.27 in1025.1 mb 0.00 in0.0 mm 0.00 in/hr0.0 mm/hr 0.00 in0.0 mm
06:30 PM 32.7°F0.4°C 29.0°F-1.7°C 86% 14.0 mph SE22.5 kmh SE 14.0 mph22.5 kmh 30.27 in1025.1 mb 0.00 in0.0 mm 0.00 in/hr0.0 mm/hr 0.00 in0.0 mm
06:45 PM 32.7°F0.4°C 29.0°F-1.7°C 86% 8.0 mph SE12.9 kmh SE 13.0 mph20.9 kmh 30.27 in1025.1 mb 0.00 in0.0 mm 0.00 in/hr0.0 mm/hr 0.00 in0.0 mm
07:00 PM 32.7°F0.4°C 29.0°F-1.7°C 86% 12.0 mph SE19.3 kmh SE 13.0 mph20.9 kmh 30.27 in1025.1 mb 0.00 in0.0 mm 0.00 in/hr0.0 mm/hr 0.00 in0.0 mm
07:15 PM 32.8°F0.4°C 29.1°F-1.6°C 86% 13.0 mph SE20.9 kmh SE 13.0 mph20.9 kmh 30.27 in1025.1 mb 0.00 in0.0 mm 0.00 in/hr0.0 mm/hr 0.00 in0.0 mm
07:30 PM 32.8°F0.4°C 28.8°F-1.8°C 85% 10.0 mph SSE16.1 kmh SSE 14.0 mph22.5 kmh 30.26 in1024.7 mb 0.00 in0.0 mm 0.00 in/hr0.0 mm/hr 0.00 in0.0 mm
07:45 PM 33.0°F0.6°C 29.3°F-1.5°C 86% 10.0 mph SE16.1 kmh SE 14.0 mph22.5 kmh 30.26 in1024.7 mb 0.00 in0.0 mm 0.00 in/hr0.0 mm/hr 0.00 in0.0 mm
08:00 PM 33.0°F0.6°C 29.0°F-1.7°C 85% 11.0 mph SE17.7 kmh SE 13.0 mph20.9 kmh 30.26 in1024.7 mb 0.00 in0.0 mm 0.00 in/hr0.0 mm/hr 0.00 in0.0 mm
08:15 PM 33.1°F0.6°C 29.4°F-1.4°C 86% 7.0 mph SE11.3 kmh SE 12.0 mph19.3 kmh 30.26 in1024.7 mb 0.00 in0.0 mm 0.00 in/hr0.0 mm/hr 0.00 in0.0 mm
08:30 PM 33.1°F0.6°C 29.7°F-1.3°C 87% 13.0 mph SE20.9 kmh SE 13.0 mph20.9 kmh 30.26 in1024.7 mb 0.00 in0.0 mm 0.00 in/hr0.0 mm/hr 0.00 in0.0 mm
08:45 PM 33.0°F0.6°C 29.8°F-1.2°C 88% 8.0 mph SE12.9 kmh SE 13.0 mph20.9 kmh 30.26 in1024.7 mb 0.00 in0.0 mm 0.00 in/hr0.0 mm/hr 0.00 in0.0 mm
09:00 PM 33.1°F0.6°C 29.7°F-1.3°C 87% 10.0 mph SE16.1 kmh SE 13.0 mph20.9 kmh 30.26 in1024.7 mb 0.00 in0.0 mm 0.00 in/hr0.0 mm/hr 0.00 in0.0 mm
09:15 PM 33.1°F0.6°C 29.7°F-1.3°C 87% 11.0 mph SE17.7 kmh SE 13.0 mph20.9 kmh 30.25 in1024.4 mb 0.00 in0.0 mm 0.00 in/hr0.0 mm/hr 0.00 in0.0 mm
09:30 PM 33.0°F0.6°C 29.8°F-1.2°C 88% 10.0 mph SE16.1 kmh SE 13.0 mph20.9 kmh 30.25 in1024.4 mb 0.00 in0.0 mm 0.00 in/hr0.0 mm/hr 0.00 in0.0 mm
09:45 PM 34.0°F1.1°C 29.1°F-1.6°C 82% 19.0 mph W30.6 kmh W 22.0 mph35.4 kmh 30.25 in1024.4 mb 0.00 in0.0 mm 0.00 in/hr0.0 mm/hr 0.00 in0.0 mm
10:00 PM 32.9°F0.5°C 29.5°F-1.4°C 87% 11.0 mph SE17.7 kmh SE 14.0 mph22.5 kmh 30.25 in1024.4 mb 0.00 in0.0 mm 0.00 in/hr0.0 mm/hr 0.00 in0.0 mm
10:15 PM 32.7°F0.4°C 29.6°F-1.3°C 88% 11.0 mph SE17.7 kmh SE 14.0 mph22.5 kmh 30.25 in1024.4 mb 0.00 in0.0 mm 0.00 in/hr0.0 mm/hr 0.00 in0.0 mm
10:30 PM 32.7°F0.4°C 29.6°F-1.3°C 88% 10.0 mph SE16.1 kmh SE 14.0 mph22.5 kmh 30.25 in1024.4 mb 0.00 in0.0 mm 0.00 in/hr0.0 mm/hr 0.00 in0.0 mm
10:45 PM 32.7°F0.4°C 29.6°F-1.3°C 88% 12.0 mph SE19.3 kmh SE 15.0 mph24.1 kmh 30.24 in1024.0 mb 0.00 in0.0 mm 0.00 in/hr0.0 mm/hr 0.00 in0.0 mm
11:00 PM 32.6°F0.3°C 29.5°F-1.4°C 88% 15.0 mph SE24.1 kmh SE 15.0 mph24.1 kmh 30.24 in1024.0 mb 0.00 in0.0 mm 0.00 in/hr0.0 mm/hr 0.00 in0.0 mm
11:15 PM 32.6°F0.3°C 29.5°F-1.4°C 88% 12.0 mph SE19.3 kmh SE 14.0 mph22.5 kmh 30.24 in1024.0 mb 0.00 in0.0 mm 0.00 in/hr0.0 mm/hr 0.00 in0.0 mm
11:30 PM 32.4°F0.2°C 28.7°F-1.8°C 86% 10.0 mph SSE16.1 kmh SSE 15.0 mph24.1 kmh 30.25 in1024.4 mb 0.00 in0.0 mm 0.00 in/hr0.0 mm/hr 0.00 in0.0 mm
11:45 PM 32.2°F0.1°C 28.8°F-1.8°C 87% 12.0 mph SSE19.3 kmh SSE 12.0 mph19.3 kmh 30.24 in1024.0 mb 0.00 in0.0 mm 0.00 in/hr0.0 mm/hr 0.00 in0.0 mm